• Join FlightAware (Why Join?)
  • Login
  • US Flag 
05:08AM EDT


 

Airport Tracker/Info


-or-


 

Live Flight TrackerFlight Track Log ✈ OPT978 ✈ 19-Apr-2013 ✈ PHNL - KAPA

Flight Track Log - Related Links

Times and Time Zones

All times are in EDT time to prevent confusion due to time zone crossing. See the OPT978 flight status page for this flight to view local times or setup timezone preferences in your user account.

Time Position Orientation Groundspeed Altitude Reporting Facility
EDT Latitude Longitude Course Direction KTS MPH feet Rate Location/Type
02:35PM 21.3000 -157.9000 137° Southeast 190 219 1,100  Level Honolulu Center
02:36PM 21.2500 -157.8500 137° Southeast 230 265 3,900 2,820 Climbing Honolulu Center
02:37PM 21.2167 -157.8000 126° Southeast 240 276 6,800 2,460 Climbing Honolulu Center
02:38PM 21.2167 -157.7333 90° East 270 311 8,900 1,980 Climbing Honolulu Center
02:39PM 21.2500 -157.6500 67° East 290 334 10,800 1,800 Climbing Honolulu Center
02:40PM 21.2833 -157.5500 70° East 320 368 12,500 1,620 Climbing Honolulu Center
02:41PM 21.3167 -157.4667 67° East 330 380 14,100 1,500 Climbing Honolulu Center
02:42PM 21.4000 -157.4000 37° Northeast 350 403 15,600 1,500 Climbing Honolulu Center
02:43PM 21.4833 -157.3500 29° Northeast 350 403 17,200 1,440 Climbing Honolulu Center
02:44PM 21.5667 -157.3000 29° Northeast 360 414 18,600 1,380 Climbing Honolulu Center
02:45PM 21.6500 -157.2500 29° Northeast 370 426 20,000 1,440 Climbing Honolulu Center
02:46PM 21.7500 -157.1833 32° Northeast 380 437 21,500 1,500 Climbing Honolulu Center
02:47PM 21.8333 -157.1333 29° Northeast 380 437 23,000 1,380 Climbing Honolulu Center
02:48PM 21.9333 -157.0667 32° Northeast 400 460 24,300 1,320 Climbing Honolulu Center
02:49PM 22.0333 -157.0000 32° Northeast 400 460 25,700 1,440 Climbing Honolulu Center
02:50PM 22.1167 -156.9500 29° Northeast 410 472 27,200 1,380 Climbing Honolulu Center
02:51PM 22.2167 -156.8833 32° Northeast 420 483 28,500 1,380 Climbing Honolulu Center
02:52PM 22.3333 -156.8167 28° Northeast 430 495 30,000 1,380 Climbing Honolulu Center
02:53PM 22.4333 -156.7500 32° Northeast 440 506 31,300 1,200 Climbing Honolulu Center
02:54PM 22.5333 -156.6833 32° Northeast 450 518 32,500 1,380 Climbing Honolulu Center
02:55PM 22.6500 -156.6000 33° Northeast 460 529 34,100 1,260 Climbing Honolulu Center
02:56PM 22.7667 -156.5333 28° Northeast 460 529 35,100 960 Climbing Honolulu Center
02:57PM 22.8667 -156.4667 32° Northeast 470 541 36,100 1,020 Climbing Honolulu Center
02:58PM 22.9833 -156.3833 33° Northeast 480 552 37,200 1,320 Climbing Honolulu Center
02:59PM 23.1000 -156.3167 28° Northeast 480 552 38,800 1,200 Climbing Honolulu Center
03:00PM 23.2167 -156.2333 33° Northeast 480 552 39,600 720 Climbing Honolulu Center
03:01PM 23.3333 -156.1667 28° Northeast 480 552 40,300 780 Climbing Honolulu Center
03:02PM 23.4500 -156.0833 33° Northeast 480 552 41,200 780 Climbing Honolulu Center
03:03PM 23.5667 -156.0167 28° Northeast 480 552 41,900 600 Climbing Honolulu Center
03:04PM 23.6833 -155.9333 33° Northeast 480 552 42,500 540 Climbing Honolulu Center
03:05PM 23.8000 -155.8667 28° Northeast 490 564 43,000 540 Climbing Honolulu Center
03:06PM 23.9167 -155.7833 33° Northeast 490 564 43,600 540 Climbing Honolulu Center
03:07PM 24.0333 -155.7167 28° Northeast 480 552 44,100 540 Climbing Honolulu Center
03:08PM 24.1500 -155.6333 33° Northeast 470 541 44,700 120 Climbing Honolulu Center
03:10PM 24.3611 -155.4887 32° Northeast  Level FlightAware Approximate
03:13PM 24.7167 -155.2667 55° Northeast 477 549 45,000  Level Oakland Oceanic (ODAPS)
03:17PM 25.0010 -154.7966 55° Northeast  Level FlightAware Approximate
03:18PM 25.0753 -154.6774 55° Northeast  Level FlightAware Approximate
03:19PM 25.3196 -154.3043 56° Northeast 477 549 45,000  Level FlightAware Transoceanic
03:20PM 25.3946 -154.1833 56° Northeast 477 549 45,000  Level FlightAware Transoceanic
03:21PM 25.4694 -154.0622 56° Northeast 477 549 45,000  Level FlightAware Transoceanic
03:22PM 25.5441 -153.9409 56° Northeast 477 549 45,000  Level FlightAware Transoceanic
03:23PM 25.6188 -153.8195 56° Northeast 477 549 45,000  Level FlightAware Transoceanic
03:24PM 25.6933 -153.6980 56° Northeast 477 549 45,000  Level FlightAware Transoceanic
03:25PM 25.7677 -153.5762 56° Northeast 477 549 45,000  Level FlightAware Transoceanic
03:26PM 25.8421 -153.4544 56° Northeast 477 549 45,000  Level FlightAware Transoceanic
03:27PM 25.9163 -153.3323 56° Northeast 477 549 45,000  Level FlightAware Transoceanic
03:28PM 25.9904 -153.2101 56° Northeast 477 549 45,000  Level FlightAware Transoceanic
03:29PM 26.0644 -153.0878 56° Northeast 477 549 45,000  Level FlightAware Transoceanic
03:30PM 26.1383 -152.9653 56° Northeast 477 549 45,000  Level FlightAware Transoceanic
03:31PM 26.2122 -152.8427 56° Northeast 477 549 45,000  Level FlightAware Transoceanic
03:32PM 26.2859 -152.7199 56° Northeast 477 549 45,000  Level FlightAware Transoceanic
03:33PM 26.3595 -152.5969 56° Northeast 477 549 45,000  Level FlightAware Transoceanic
03:34PM 26.4330 -152.4738 56° Northeast 477 549 45,000  Level FlightAware Transoceanic
03:35PM 26.5064 -152.3505 56° Northeast 477 549 45,000  Level FlightAware Transoceanic
03:36PM 26.5797 -152.2271 56° Northeast 477 549 45,000  Level FlightAware Transoceanic
03:37PM 26.6529 -152.1035 57° Northeast 477 549 45,000  Level FlightAware Transoceanic
03:38PM 26.7259 -151.9798 57° Northeast 477 549 45,000  Level FlightAware Transoceanic
03:39PM 26.7989 -151.8559 57° Northeast 477 549 45,000  Level FlightAware Transoceanic
03:40PM 26.8718 -151.7318 57° Northeast 477 549 45,000  Level FlightAware Transoceanic
03:41PM 26.9445 -151.6076 57° Northeast 477 549 45,000  Level FlightAware Transoceanic
03:42PM 27.0172 -151.4832 57° Northeast 477 549 45,000  Level FlightAware Transoceanic
03:43PM 27.0897 -151.3587 57° Northeast 477 549 45,000  Level FlightAware Transoceanic
03:44PM 27.1621 -151.2340 57° Northeast 477 549 45,000  Level FlightAware Transoceanic
03:45PM 27.2344 -151.1091 57° Northeast 477 549 45,000  Level FlightAware Transoceanic
03:46PM 27.3066 -150.9841 57° Northeast 477 549 45,000  Level FlightAware Transoceanic
03:47PM 27.3787 -150.8589 57° Northeast 477 549 45,000  Level FlightAware Transoceanic
03:48PM 27.4507 -150.7335 57° Northeast 477 549 45,000  Level FlightAware Transoceanic
03:49PM 27.5226 -150.6080 57° Northeast 477 549 45,000  Level FlightAware Transoceanic
03:50PM 27.5943 -150.4823 57° Northeast 477 549 45,000  Level FlightAware Transoceanic
03:51PM 27.6660 -150.3565 57° Northeast 477 549 45,000  Level FlightAware Transoceanic
03:52PM 27.7375 -150.2305 57° Northeast 477 549 45,000  Level FlightAware Transoceanic
03:53PM 27.8089 -150.1043 57° Northeast 477 549 45,000  Level FlightAware Transoceanic
03:54PM 27.8802 -149.9780 57° Northeast 477 549 45,000  Level FlightAware Transoceanic
03:55PM 27.9514 -149.8515 58° Northeast 477 549 45,000  Level FlightAware Transoceanic
03:56PM 28.0225 -149.7248 58° Northeast 477 549 45,000  Level FlightAware Transoceanic
03:57PM 28.0934 -149.5979 58° Northeast 477 549 45,000  Level FlightAware Transoceanic
03:58PM 28.1643 -149.4709 58° Northeast 477 549 45,000  Level FlightAware Transoceanic
03:59PM 28.2350 -149.3437 58° Northeast 477 549 45,000  Level FlightAware Transoceanic
04:00PM 28.3056 -149.2164 58° Northeast 477 549 45,000  Level FlightAware Transoceanic
04:01PM 28.3761 -149.0889 58° Northeast 477 549 45,000  Level FlightAware Transoceanic
04:02PM 28.4464 -148.9612 58° Northeast 477 549 45,000  Level FlightAware Transoceanic
04:03PM 28.5167 -148.8333 58° Northeast 477 549 45,000  Level FlightAware Transoceanic
04:04PM 28.5841 -148.7096 58° Northeast 477 549 45,000  Level FlightAware Transoceanic
04:05PM 28.6513 -148.5857 58° Northeast 477 549 45,000  Level FlightAware Transoceanic
04:05PM 28.5167 -148.8333 58° Northeast 497 572 45,000  Level Oakland Oceanic (ODAPS)
04:06PM 28.7185 -148.4617 58° Northeast 477 549 45,000  Level FlightAware Transoceanic
04:07PM 28.7856 -148.3375 58° Northeast 477 549 45,000  Level FlightAware Transoceanic
04:08PM 28.8525 -148.2131 58° Northeast 477 549 45,000  Level FlightAware Transoceanic
04:09PM 28.9193 -148.0886 59° Northeast 477 549 45,000  Level FlightAware Transoceanic
04:10PM 28.9860 -147.9639 59° Northeast 477 549 45,000  Level FlightAware Transoceanic
04:11PM 29.3099 -147.3532 59° Northeast 497 572 45,000  Level FlightAware Transoceanic
04:12PM 29.3812 -147.2175 59° Northeast 497 572 45,000  Level FlightAware Transoceanic
04:13PM 29.4524 -147.0816 59° Northeast 497 572 45,000  Level FlightAware Transoceanic
04:14PM 29.5234 -146.9456 59° Northeast 497 572 45,000  Level FlightAware Transoceanic
04:15PM 29.5943 -146.8093 59° Northeast 497 572 45,000  Level FlightAware Transoceanic
04:16PM 29.6651 -146.6729 59° Northeast 497 572 45,000  Level FlightAware Transoceanic
04:17PM 29.7357 -146.5362 59° Northeast 497 572 45,000  Level FlightAware Transoceanic
04:18PM 29.8062 -146.3994 59° Northeast 497 572 45,000  Level FlightAware Transoceanic
04:19PM 29.8765 -146.2623 59° Northeast 497 572 45,000  Level FlightAware Transoceanic
04:20PM 29.9467 -146.1251 59° Northeast 497 572 45,000  Level FlightAware Transoceanic
04:21PM 30.0167 -145.9877 60° Northeast 497 572 45,000  Level FlightAware Transoceanic
04:22PM 30.0866 -145.8501 60° Northeast 497 572 45,000  Level FlightAware Transoceanic
04:23PM 30.1564 -145.7123 60° Northeast 497 572 45,000  Level FlightAware Transoceanic
04:24PM 30.2260 -145.5743 60° Northeast 497 572 45,000  Level FlightAware Transoceanic
04:25PM 30.2955 -145.4361 60° Northeast 497 572 45,000  Level FlightAware Transoceanic
04:26PM 30.3648 -145.2977 60° Northeast 497 572 45,000  Level FlightAware Transoceanic
04:27PM 30.4340 -145.1591 60° Northeast 497 572 45,000  Level FlightAware Transoceanic
04:28PM 30.5030 -145.0204 60° Northeast 497 572 45,000  Level FlightAware Transoceanic
04:29PM 30.5719 -144.8814 60° Northeast 497 572 45,000  Level FlightAware Transoceanic
04:30PM 30.6406 -144.7422 60° Northeast 497 572 45,000  Level FlightAware Transoceanic
04:31PM 30.7092 -144.6028 60° Northeast 497 572 45,000  Level FlightAware Transoceanic
04:32PM 30.7776 -144.4633 60° Northeast 497 572 45,000  Level FlightAware Transoceanic
04:33PM 30.8459 -144.3235 60° Northeast 497 572 45,000  Level FlightAware Transoceanic
04:34PM 30.9141 -144.1835 60° Northeast 497 572 45,000  Level FlightAware Transoceanic
04:35PM 30.9820 -144.0434 61° Northeast 497 572 45,000  Level FlightAware Transoceanic
04:36PM 31.0499 -143.9030 61° Northeast 497 572 45,000  Level FlightAware Transoceanic
04:37PM 31.1176 -143.7624 61° Northeast 497 572 45,000  Level FlightAware Transoceanic
04:38PM 31.1851 -143.6216 61° Northeast 497 572 45,000  Level FlightAware Transoceanic
04:39PM 31.2525 -143.4807 61° Northeast 497 572 45,000  Level FlightAware Transoceanic
04:40PM 31.3197 -143.3395 61° Northeast 497 572 45,000  Level FlightAware Transoceanic
04:41PM 31.3868 -143.1981 61° Northeast 497 572 45,000  Level FlightAware Transoceanic
04:42PM 31.4537 -143.0566 61° Northeast 497 572 45,000  Level FlightAware Transoceanic
04:43PM 31.5205 -142.9148 61° Northeast 497 572 45,000  Level FlightAware Transoceanic
04:44PM 31.5870 -142.7728 61° Northeast 497 572 45,000  Level FlightAware Transoceanic
04:45PM 31.6535 -142.6306 61° Northeast 497 572 45,000  Level FlightAware Transoceanic
04:46PM 31.7198 -142.4882 61° Northeast 497 572 45,000  Level FlightAware Transoceanic
04:47PM 31.7859 -142.3457 61° Northeast 497 572 45,000  Level FlightAware Transoceanic
04:48PM 31.8519 -142.2029 62° Northeast 497 572 45,000  Level FlightAware Transoceanic
04:49PM 31.9177 -142.0599 62° Northeast 497 572 45,000  Level FlightAware Transoceanic
04:50PM 31.9833 -141.9167 62° Northeast 497 572 45,000  Level FlightAware Transoceanic
04:51PM 32.0461 -141.7799 62° Northeast 497 572 45,000  Level FlightAware Transoceanic
04:52PM 32.1087 -141.6430 62° Northeast 497 572 45,000  Level FlightAware Transoceanic
04:53PM 32.1711 -141.5059 62° Northeast 497 572 45,000  Level FlightAware Transoceanic
04:54PM 32.2334 -141.3686 62° Northeast 497 572 45,000  Level FlightAware Transoceanic
04:55PM 32.2955 -141.2311 62° Northeast 497 572 45,000  Level FlightAware Transoceanic
04:56PM 32.3575 -141.0935 62° Northeast 497 572 45,000  Level FlightAware Transoceanic
04:57PM 32.4193 -140.9556 62° Northeast 497 572 45,000  Level FlightAware Transoceanic
04:58PM 32.4810 -140.8176 62° Northeast 497 572 45,000  Level FlightAware Transoceanic
04:59PM 32.5426 -140.6793 62° Northeast 497 572 45,000  Level FlightAware Transoceanic
05:00PM 32.6040 -140.5409 62° Northeast 497 572 45,000  Level FlightAware Transoceanic
05:01PM 32.6652 -140.4023 62° Northeast 497 572 45,000  Level FlightAware Transoceanic
05:02PM 32.7263 -140.2635 62° Northeast 497 572 45,000  Level FlightAware Transoceanic
05:03PM 32.7872 -140.1245 63° Northeast 497 572 45,000  Level FlightAware Transoceanic
05:04PM 32.8480 -139.9853 63° Northeast 497 572 45,000  Level FlightAware Transoceanic
05:05PM 32.9086 -139.8459 63° Northeast 497 572 45,000  Level FlightAware Transoceanic
05:06PM 32.9691 -139.7064 63° Northeast 497 572 45,000  Level FlightAware Transoceanic
05:07PM 33.0294 -139.5666 63° Northeast 497 572 45,000  Level FlightAware Transoceanic
05:08PM 33.0895 -139.4267 63° Northeast 497 572 45,000  Level FlightAware Transoceanic
05:08PM 31.9833 -141.9167 62° Northeast 504 580 45,000  Level Oakland Oceanic (ODAPS)
05:09PM 33.1495 -139.2865 63° Northeast 497 572 45,000  Level FlightAware Transoceanic
05:10PM 33.2094 -139.1462 63° Northeast 497 572 45,000  Level FlightAware Transoceanic
05:11PM 33.2691 -139.0056 63° Northeast 497 572 45,000  Level FlightAware Transoceanic
05:12PM 33.3286 -138.8649 63° Northeast 497 572 45,000  Level FlightAware Transoceanic
05:13PM 33.3879 -138.7240 63° Northeast 497 572 45,000  Level FlightAware Transoceanic
05:14PM 33.5356 -138.3709 63° Northeast 504 580 45,000  Level FlightAware Transoceanic
05:15PM 33.5981 -138.2205 64° Northeast 504 580 45,000  Level FlightAware Transoceanic
05:16PM 33.6604 -138.0698 64° Northeast 504 580 45,000  Level FlightAware Transoceanic
05:17PM 33.7225 -137.9189 64° Northeast 504 580 45,000  Level FlightAware Transoceanic
05:18PM 33.7845 -137.7679 64° Northeast 504 580 45,000  Level FlightAware Transoceanic
05:19PM 33.8462 -137.6165 64° Northeast 504 580 45,000  Level FlightAware Transoceanic
05:20PM 33.9078 -137.4650 64° Northeast 504 580 45,000  Level FlightAware Transoceanic
05:21PM 33.9691 -137.3133 64° Northeast 504 580 45,000  Level FlightAware Transoceanic
05:22PM 34.0303 -137.1613 64° Northeast 504 580 45,000  Level FlightAware Transoceanic
05:23PM 34.0913 -137.0091 64° Northeast 504 580 45,000  Level FlightAware Transoceanic
05:24PM 34.1521 -136.8567 64° Northeast 504 580 45,000  Level FlightAware Transoceanic
05:25PM 34.2127 -136.7041 64° Northeast 504 580 45,000  Level FlightAware Transoceanic
05:26PM 34.2732 -136.5513 64° Northeast 504 580 45,000  Level FlightAware Transoceanic
05:27PM 34.3334 -136.3982 65° Northeast 504 580 45,000  Level FlightAware Transoceanic
05:28PM 34.3935 -136.2449 65° Northeast 504 580 45,000  Level FlightAware Transoceanic
05:29PM 34.4533 -136.0914 65° Northeast 504 580 45,000  Level FlightAware Transoceanic
05:30PM 34.5130 -135.9377 65° Northeast 504 580 45,000  Level FlightAware Transoceanic
05:31PM 34.5725 -135.7838 65° Northeast 504 580 45,000  Level FlightAware Transoceanic
05:32PM 34.6317 -135.6296 65° Northeast 504 580 45,000  Level FlightAware Transoceanic
05:33PM 34.6908 -135.4752 65° Northeast 504 580 45,000  Level FlightAware Transoceanic
05:34PM 34.7497 -135.3206 65° Northeast 504 580 45,000  Level FlightAware Transoceanic
05:35PM 34.8084 -135.1658 65° Northeast 504 580 45,000  Level FlightAware Transoceanic
05:36PM 34.8669 -135.0108 65° Northeast 504 580 45,000  Level FlightAware Transoceanic
05:37PM 34.9252 -134.8555 65° Northeast 504 580 45,000  Level FlightAware Transoceanic
05:38PM 34.9833 -134.7000 66° East 504 580 45,000  Level FlightAware Transoceanic
05:39PM 35.0395 -134.5478 66° East 504 580 45,000 1,020 Level FlightAware Transoceanic
05:39PM 34.9833 -134.7000 66° East 514 592 47,000  Climbing Oakland Oceanic (ODAPS)
05:40PM 35.0955 -134.3955 66° East 504 580 45,000 -1,920 Descending FlightAware Transoceanic
05:41PM 35.1513 -134.2429 66° East 504 580 45,000  Level FlightAware Transoceanic
05:42PM 35.2069 -134.0901 66° East 504 580 45,000  Level FlightAware Transoceanic
05:43PM 35.2623 -133.9371 66° East 504 580 45,000  Level FlightAware Transoceanic
05:44PM 35.3175 -133.7839 66° East 504 580 45,000  Level FlightAware Transoceanic
05:45PM 35.3725 -133.6305 66° East 504 580 45,000 960 Level FlightAware Transoceanic
05:46PM 35.4460 -133.4246 66° East 514 592 47,000 960 Climbing FlightAware Transoceanic
05:47PM 35.5029 -133.2641 67° East 514 592 47,000  Level FlightAware Transoceanic
05:48PM 35.5595 -133.1034 67° East 514 592 47,000  Level FlightAware Transoceanic
05:49PM 35.6160 -132.9425 67° East 514 592 47,000  Level FlightAware Transoceanic
05:50PM 35.6722 -132.7814 67° East 514 592 47,000  Level FlightAware Transoceanic
05:51PM 35.7283 -132.6200 67° East 514 592 47,000  Level FlightAware Transoceanic
05:52PM 35.7841 -132.4584 67° East 514 592 47,000  Level FlightAware Transoceanic
05:53PM 35.8397 -132.2966 67° East 514 592 47,000  Level FlightAware Transoceanic
05:54PM 35.8951 -132.1346 67° East 514 592 47,000  Level FlightAware Transoceanic
05:55PM 35.9502 -131.9723 67° East 514 592 47,000  Level FlightAware Transoceanic
05:56PM 36.0051 -131.8098 67° East 514 592 47,000  Level FlightAware Transoceanic
05:57PM 36.0599 -131.6471 67° East 514 592 47,000  Level FlightAware Transoceanic
05:58PM 36.1144 -131.4842 68° East 514 592 47,000  Level FlightAware Transoceanic
05:59PM 36.1687 -131.3210 68° East 514 592 47,000  Level FlightAware Transoceanic
06:00PM 36.2227 -131.1576 68° East 514 592 47,000  Level FlightAware Transoceanic
06:01PM 36.2766 -130.9940 68° East 514 592 47,000  Level FlightAware Transoceanic
06:02PM 36.3302 -130.8301 68° East 514 592 47,000  Level FlightAware Transoceanic
06:03PM 36.3836 -130.6661 68° East 514 592 47,000  Level FlightAware Transoceanic
06:04PM 36.4367 -130.5018 68° East 514 592 47,000  Level FlightAware Transoceanic
06:05PM 36.4897 -130.3372 68° East 514 592 47,000  Level FlightAware Transoceanic
06:06PM 36.5424 -130.1725 68° East 514 592 47,000  Level FlightAware Transoceanic
06:07PM 36.5949 -130.0075 68° East 514 592 47,000  Level FlightAware Transoceanic
06:08PM 36.6471 -129.8423 69° East 514 592 47,000  Level FlightAware Transoceanic
06:09PM 36.6992 -129.6769 69° East 514 592 47,000  Level FlightAware Transoceanic
06:10PM 36.7510 -129.5113 69° East 514 592 47,000  Level FlightAware Transoceanic
06:11PM 36.8025 -129.3454 69° East 514 592 47,000  Level FlightAware Transoceanic
06:12PM 36.8539 -129.1793 69° East 514 592 47,000  Level FlightAware Transoceanic
06:13PM 36.9050 -129.0130 69° East 514 592 47,000  Level FlightAware Transoceanic
06:14PM 36.9559 -128.8465 69° East 514 592 47,000  Level FlightAware Transoceanic
06:15PM 37.0065 -128.6797 69° East 514 592 47,000  Level FlightAware Transoceanic
06:16PM 37.0569 -128.5127 69° East 514 592 47,000  Level FlightAware Transoceanic
06:17PM 37.1071 -128.3455 69° East 514 592 47,000  Level FlightAware Transoceanic
06:18PM 37.1571 -128.1781 70° East 514 592 47,000  Level FlightAware Transoceanic
06:19PM 37.2067 -128.0105 70° East 514 592 47,000  Level FlightAware Transoceanic
06:20PM 37.2562 -127.8426 70° East 514 592 47,000  Level FlightAware Transoceanic
06:21PM 37.3055 -127.6745 70° East 514 592 47,000  Level FlightAware Transoceanic
06:22PM 37.3545 -127.5062 70° East 514 592 47,000  Level FlightAware Transoceanic
06:23PM 37.4032 -127.3377 70° East 514 592 47,000  Level FlightAware Transoceanic
06:24PM 37.4517 -127.1690 70° East 514 592 47,000  Level FlightAware Transoceanic
06:25PM 37.5000 -127.0000 70° East 514 592 47,000 -60 Level FlightAware Transoceanic
06:25PM 37.5897 -126.7231 70° East 537 618 46,900  Descending Oakland Center
06:26PM 37.5483 -126.8340 70° East 514 592 47,000  Climbing FlightAware Transoceanic
06:26PM 37.6389 -126.5458 71° East 537 618 46,900  Descending Oakland Center
06:27PM 37.5964 -126.6677 70° East 514 592 47,000 60 Climbing FlightAware Transoceanic
06:27PM 37.6725 -126.3628 77° East 537 618 47,000  Level Oakland Center
06:28PM 37.6443 -126.5013 70° East 514 592 47,000 -120 Level FlightAware Transoceanic
06:28PM 37.6914 -126.1753 83° East 537 618 46,900  Descending Oakland Center
06:29PM 37.6919 -126.3346 70° East 514 592 47,000 60 Climbing FlightAware Transoceanic
06:30PM 37.7393 -126.1677 70° East 514 592 47,000 -120 Level FlightAware Transoceanic
06:30PM 37.7092 -125.9883 83° East 538 619 46,900  Descending Oakland Center
06:31PM 37.7864 -126.0006 70° East 514 592 47,000 240 Climbing FlightAware Transoceanic
06:31PM 37.7272 -125.8019 83° East 538 619 47,200 360 Climbing Oakland Center
06:32PM 37.7444 -125.6164 83° East 534 615 47,400 240 Climbing Oakland Center
06:33PM 37.7639 -125.3975 84° East 527 606 47,700 240 Climbing Oakland Center
06:34PM 37.7806 -125.2131 83° East 529 609 48,000 180 Climbing Oakland Center
06:35PM 37.7964 -125.0294 84° East 528 608 48,100 120 Climbing Oakland Center
06:36PM 37.8136 -124.8469 83° East 525 604 48,300 240 Climbing Oakland Center
06:37PM 37.8286 -124.6633 84° East 526 605 48,600 240 Climbing Oakland Center
06:38PM 37.8439 -124.4819 84° East 522 601 48,800 120 Climbing Oakland Center
06:39PM 37.8606 -124.2994 83° East 524 603 48,900  Climbing Oakland Center
06:40PM 37.8747 -124.1172 84° East 523 602 48,900  Level Oakland Center
06:41PM 37.8925 -123.8978 84° East 524 603 48,900  Level Oakland Center
06:42PM 37.9058 -123.7136 85° East 527 606 48,900  Level Oakland Center
06:43PM 37.9197 -123.5297 84° East 527 606 49,000  Climbing Oakland Center
06:44PM 37.9336 -123.3447 85° East 529 609 49,000 -60 Level Oakland Center
06:45PM 37.9461 -123.1603 85° East 528 608 48,900 -60 Descending Oakland Center
06:46PM 37.9592 -122.9744 85° East 530 610 48,900  Level Oakland Center
06:47PM 37.9719 -122.7900 85° East 526 605 48,900  Level Oakland Center
06:48PM 37.9872 -122.5728 85° East 535 616 49,000  Climbing Oakland Center
06:49PM 37.9986 -122.3997 85° East 539 620 48,900 -60 Descending Oakland Center
06:50PM 38.0144 -122.2128 84° East 536 617 48,900  Level Oakland Center
06:51PM 38.0419 -122.0314 79° East 528 608 48,900  Level Oakland Center
06:52PM 38.0694 -121.8481 79° East 529 609 48,900  Level Oakland Center
06:53PM 38.0978 -121.6653 79° East 529 609 48,900  Level Oakland Center
06:54PM 38.1269 -121.4725 79° East 529 609 49,000  Climbing Oakland Center
06:55PM 38.1547 -121.2908 79° East 530 610 49,000  Level Oakland Center
06:56PM 38.1867 -121.0717 79° East 533 613 49,000  Level Oakland Center
06:57PM 38.2136 -120.8903 79° East 529 609 49,000  Level Oakland Center
06:58PM 38.2403 -120.7067 79° East 532 612 49,000  Level Oakland Center
06:59PM 38.2661 -120.5236 80° East 531 611 49,000  Level Oakland Center
07:00PM 38.2919 -120.3397 80° East 532 612 49,000  Level Oakland Center
07:01PM 38.3181 -120.1569 80° East 528 608 49,000  Level Oakland Center
07:02PM 38.3447 -119.9736 79° East 530 610 49,000  Level Oakland Center
07:03PM 38.3689 -119.7892 80° East 530 610 49,000  Level Oakland Center
07:04PM 38.3992 -119.5678 80° East 533 613 49,000  Level Oakland Center
07:05PM 38.4200 -119.4011 81° East 528 608 49,000  Level Oakland Center
07:06PM 38.4447 -119.2169 80° East 529 609 49,000  Level Oakland Center
07:07PM 38.4678 -119.0306 81° East 533 613 49,000  Level Oakland Center
07:08PM 38.4964 -118.8106 80° East 528 608 49,000  Level Oakland Center
07:09PM 38.5183 -118.6256 81° East 529 609 49,000  Level Oakland Center
07:10PM 38.5428 -118.4403 80° East 532 612 49,000  Level Oakland Center
07:11PM 38.5650 -118.2558 81° East 530 610 49,000  Level Oakland Center
07:12PM 38.5886 -118.0506 82° East 529 609 49,000  Level Oakland Center
07:13PM 38.6103 -117.8650 81° East 527 606 49,000  Level Oakland Center
07:15PM 38.6322 -117.6772 81° East 530 610 49,000  Level Oakland Center
07:16PM 38.6536 -117.4906 82° East 528 608 49,000  Level Oakland Center
07:17PM 38.6753 -117.3022 82° East 530 610 49,000  Level Oakland Center
07:17PM 38.6831 -117.2250 83° East 532 612 49,000  Level Salt Lake Center
07:18PM 38.6964 -117.1125 81° East 532 612 49,000  Level Oakland Center
07:19PM 38.7167 -116.9250 82° East 530 610 49,000 -120 Level Oakland Center
07:19PM 38.7244 -116.8489 83° East 529 609 48,900  Descending Salt Lake Center
07:20PM 38.7447 -116.6600 82° East 533 613 49,000 60 Climbing Salt Lake Center
07:21PM 38.7572 -116.5475 82° East 533 613 49,000  Level Oakland Center
07:22PM 38.7761 -116.3606 83° East 531 611 49,000  Level Oakland Center
07:22PM 38.7836 -116.2864 83° East 528 608 49,000  Level Salt Lake Center
07:23PM 38.8028 -116.1011 82° East 524 603 49,000  Level Salt Lake Center
07:24PM 38.8253 -115.8789 83° East 523 602 49,000  Level Salt Lake Center
07:25PM 38.8431 -115.6956 83° East 519 597 49,000  Level Salt Lake Center
07:26PM 38.8608 -115.5122 83° East 519 597 49,000  Level Salt Lake Center
07:27PM 38.8794 -115.3125 83° East 530 610 49,000  Level Salt Lake Center
07:28PM 38.8964 -115.1256 83° East 529 609 49,000  Level Salt Lake Center
07:29PM 38.9128 -114.9369 84° East 531 611 49,000  Level Salt Lake Center
07:30PM 38.9297 -114.7481 83° East 532 612 49,000  Level Salt Lake Center
07:31PM 38.9531 -114.5519 81° East 544 626 49,000  Level Salt Lake Center
07:32PM 38.9681 -114.3625 84° East 538 619 49,000  Level Salt Lake Center
07:33PM 38.9839 -114.1731 84° East 534 615 49,000  Level Salt Lake Center
07:34PM 39.0036 -113.9447 84° East 536 617 49,000  Level Salt Lake Center
07:35PM 39.0194 -113.7542 84° East 536 617 49,000  Level Salt Lake Center
07:36PM 39.0350 -113.5644 84° East 535 616 49,000  Level Salt Lake Center
07:38PM 39.0492 -113.3747 84° East 533 613 49,000  Level Salt Lake Center
07:39PM 39.0639 -113.1842 84° East 534 615 49,000  Level Salt Lake Center
07:40PM 39.0772 -112.9969 85° East 531 611 49,000  Level Salt Lake Center
07:41PM 39.0928 -112.8097 84° East 526 605 49,000  Level Salt Lake Center
07:42PM 39.1056 -112.6225 85° East 525 604 49,000  Level Salt Lake Center
07:43PM 39.1217 -112.4000 85° East 521 600 49,000  Level Salt Lake Center
07:44PM 39.1339 -112.2153 85° East 519 597 49,000  Level Salt Lake Center
07:45PM 39.1467 -112.0300 85° East 519 597 49,000  Level Salt Lake Center
07:46PM 39.1589 -111.8447 85° East 519 597 49,000  Level Salt Lake Center
07:47PM 39.1708 -111.6592 85° East 520 598 49,000  Level Salt Lake Center
07:48PM 39.1836 -111.4700 85° East 527 606 49,000  Level Salt Lake Center
07:49PM 39.1944 -111.2514 86° East 530 610 49,000  Level Salt Lake Center
07:50PM 39.2064 -111.0708 85° East 530 610 49,000  Level Salt Lake Center
07:51PM 39.2183 -110.8619 86° East 524 603 49,000  Level Salt Lake Center
07:52PM 39.2275 -110.6814 86° East 527 606 49,000  Level Salt Lake Center
07:53PM 39.2336 -110.5300 87° East 525 604 49,000  Level Denver Center
07:54PM 39.2436 -110.3500 86° East 526 605 49,000  Level Denver Center
07:55PM 39.2558 -110.1422 86° East 523 602 49,000  Level Denver Center
07:56PM 39.2631 -109.9631 87° East 524 603 49,000  Level Denver Center
07:57PM 39.2736 -109.7533 86° East 524 603 49,000  Level Denver Center
07:58PM 39.2658 -109.5119 92° East 532 612 49,000  Level Denver Center
07:59PM 39.2411 -109.3342 100° East 529 609 49,000  Level Denver Center
08:00PM 39.2039 -109.1289 103° East 529 609 49,000  Level Denver Center
08:01PM 39.1733 -108.9522 103° East 530 610 49,000  Level Denver Center
08:02PM 39.1367 -108.7489 103° East 525 604 49,000  Level Denver Center
08:03PM 39.1050 -108.5725 103° East 531 611 49,000  Level Denver Center
08:04PM 39.0739 -108.3961 103° East 531 611 49,000 -660 Level Denver Center
08:05PM 39.0344 -108.1886 104° East 535 616 47,700 -1,380 Descending Denver Center
08:06PM 39.0006 -108.0058 103° East 547 629 46,200 -1,560 Descending Denver Center
08:07PM 38.9631 -107.7933 103° East 548 631 44,500 -1,680 Descending Denver Center
08:08PM 38.9208 -107.5831 104° East 545 627 42,800 -1,560 Descending Denver Center
08:10PM 38.8864 -107.4031 104° East 544 626 41,300 -1,680 Descending Denver Center
08:11PM 38.8442 -107.1922 104° East 549 632 39,400 -1,680 Descending Denver Center
08:12PM 38.8142 -107.0364 104° East 532 612 37,900 -1,800 Descending Denver Center
08:13PM 38.7686 -106.8136 105° East 541 623 35,800 -1,980 Descending Denver Center
08:14PM 38.7314 -106.6261 104° East 544 626 33,900 -1,920 Descending Denver Center
08:15PM 38.6939 -106.4381 104° East 546 628 31,900 -1,980 Descending Denver Center
08:16PM 38.6553 -106.2511 105° East 543 625 29,900 -1,500 Descending Denver Center
08:17PM 38.6211 -106.0686 103° East 484 557 28,900 -1,080 Descending Denver Center
08:18PM 38.6383 -105.9042 82° East 465 535 27,700 -960 Descending Denver Center
08:19PM 38.7092 -105.7672 56° Northeast 458 527 27,000 -720 Descending Denver Center
08:20PM 38.8128 -105.6525 41° Northeast 445 512 26,300 -1,620 Descending Denver Center
08:21PM 38.9003 -105.5450 44° Northeast 451 519 23,700 -2,760 Descending Denver Center
08:22PM 38.9972 -105.4275 43° Northeast 430 495 20,700 -2,580 Descending Denver Center
08:23PM 39.0769 -105.3300 43° Northeast 397 457 18,400 -2,340 Descending Denver Center
08:24PM 39.1542 -105.2325 44° Northeast 369 425 15,900 -2,280 Descending Denver Center
08:25PM 39.1981 -105.1128 65° Northeast 376 433 13,800 -2,100 Descending Denver Center
08:26PM 39.2417 -104.9953 64° Northeast 365 420 11,700 -1,860 Descending Denver Center
08:27PM 39.3372 -104.9664 13° North 322 371 10,000 -1,200 Descending Denver Center
08:28PM 39.4217 -104.9489 North 302 348 9,300 -660 Descending Denver Center
08:29PM 39.5056 -104.9344 North 283 326 8,700 -540 Descending Denver Center
08:30PM 39.5831 -104.9244 North 283 326 8,300 -720 Descending Denver Center
08:31PM 39.6286 -104.8800 37° Northeast 218 251 7,300 -1,200 Descending Denver Center
08:32PM 39.5914 -104.8531 151° Southeast 160 184 5,900 -1,380 Descending Denver Center
08:34PM 39.5701 -104.8493 153° Southeast  Level Estimated